createdAt,value
2023-04-12T00:00:45.531Z,10.00
2023-04-12T00:07:46.853Z,10.00
2023-04-12T00:14:47.373Z,9.80
2023-04-12T00:21:47.605Z,9.70
2023-04-12T00:28:48.378Z,9.60
2023-04-12T00:35:48.820Z,9.40
2023-04-12T00:42:49.359Z,9.30
2023-04-12T00:49:50.143Z,9.20
2023-04-12T00:56:50.770Z,9.10
2023-04-12T01:03:53.101Z,9.00
2023-04-12T01:11:05.215Z,9.00
2023-04-12T01:18:14.672Z,8.90
2023-04-12T01:25:54.657Z,8.90
2023-04-12T01:32:56.694Z,8.80
2023-04-12T01:39:56.967Z,8.80
2023-04-12T01:46:58.696Z,8.70
2023-04-12T01:54:10.981Z,8.60
2023-04-12T02:01:13.575Z,8.60
2023-04-12T02:08:14.469Z,8.60
2023-04-12T02:15:16.122Z,8.50
2023-04-12T02:22:16.598Z,8.40
2023-04-12T02:29:17.503Z,8.40
2023-04-12T02:36:19.900Z,8.30
2023-04-12T02:43:21.780Z,8.30
2023-04-12T02:50:31.477Z,8.20
2023-04-12T02:57:49.034Z,8.20
2023-04-12T03:04:53.175Z,8.10
2023-04-12T03:11:57.240Z,8.10
2023-04-12T03:18:57.609Z,8.00
2023-04-12T03:25:59.927Z,8.00
2023-04-12T03:33:07.950Z,8.00
2023-04-12T03:40:10.659Z,7.90
2023-04-12T03:47:14.468Z,7.90
2023-04-12T03:54:14.929Z,7.90
2023-04-12T04:01:28.163Z,7.80
2023-04-12T04:08:29.512Z,7.80
2023-04-12T04:15:30.174Z,7.80
2023-04-12T04:22:32.496Z,7.80
2023-04-12T04:29:36.677Z,7.80
2023-04-12T04:36:38.271Z,7.80
2023-04-12T04:43:40.835Z,7.80
2023-04-12T04:50:41.278Z,7.80
2023-04-12T04:57:41.731Z,7.90
2023-04-12T05:04:42.055Z,7.90
2023-04-12T05:11:44.867Z,7.90
2023-04-12T05:18:46.694Z,8.00
2023-04-12T05:25:48.085Z,7.90
2023-04-12T05:32:48.238Z,7.90
2023-04-12T05:39:51.631Z,7.90
2023-04-12T05:46:53.001Z,7.80
2023-04-12T05:53:53.344Z,7.80
2023-04-12T06:00:55.369Z,7.80
2023-04-12T06:07:55.986Z,7.90
2023-04-12T06:14:56.569Z,7.80
2023-04-12T06:21:56.977Z,7.90
2023-04-12T06:28:58.212Z,7.90
2023-04-12T06:36:00.383Z,7.90
2023-04-12T06:43:00.665Z,7.90
2023-04-12T06:50:01.156Z,8.00
2023-04-12T06:57:01.871Z,8.00
2023-04-12T07:04:02.181Z,8.10
2023-04-12T07:11:14.599Z,8.10
2023-04-12T07:18:21.613Z,8.20
2023-04-12T07:25:21.975Z,8.30
2023-04-12T07:32:22.879Z,8.40
2023-04-12T07:39:23.131Z,8.50
2023-04-12T07:46:23.590Z,8.50
2023-04-12T07:53:26.479Z,8.50
2023-04-12T08:00:27.478Z,8.60
2023-04-12T08:07:27.610Z,8.80
2023-04-12T08:14:27.949Z,8.80
2023-04-12T08:21:29.929Z,8.80
2023-04-12T08:28:31.097Z,8.90
2023-04-12T08:35:31.727Z,9.00
2023-04-12T08:42:34.164Z,9.10
2023-04-12T08:49:35.297Z,9.30
2023-04-12T08:56:36.384Z,9.50
2023-04-12T09:03:36.960Z,9.50
2023-04-12T09:10:38.628Z,9.60
2023-04-12T09:17:40.543Z,9.70
2023-04-12T09:24:47.474Z,9.80
2023-04-12T09:31:57.999Z,9.80
2023-04-12T09:39:01.821Z,9.90
2023-04-12T09:46:14.030Z,10.00
2023-04-12T09:53:18.402Z,10.10
2023-04-12T10:00:22.475Z,10.30
2023-04-12T10:07:23.988Z,10.40
2023-04-12T10:14:27.450Z,10.50
2023-04-12T10:21:27.904Z,10.60
2023-04-12T10:28:28.355Z,10.90
2023-04-12T10:35:29.696Z,11.30
2023-04-12T10:42:30.076Z,11.40
2023-04-12T10:49:34.704Z,11.50
2023-04-12T10:56:37.361Z,11.50
2023-04-12T11:03:57.702Z,11.60
2023-04-12T11:11:17.758Z,11.50
2023-04-12T11:18:18.089Z,10.50
2023-04-12T11:25:18.702Z,10.10
2023-04-12T11:32:19.126Z,10.30
2023-04-12T11:39:21.102Z,10.70
2023-04-12T11:46:21.584Z,11.00
2023-04-12T11:53:24.305Z,11.10
2023-04-12T12:00:25.456Z,11.30
2023-04-12T12:07:26.384Z,11.30
2023-04-12T12:14:28.035Z,11.50
2023-04-12T12:21:28.668Z,11.70
2023-04-12T12:28:29.571Z,11.80
2023-04-12T12:35:34.782Z,12.00
2023-04-12T12:42:35.791Z,12.10
2023-04-12T12:49:36.233Z,12.30
2023-04-12T12:56:36.910Z,12.60
2023-04-12T13:03:37.221Z,13.10
2023-04-12T13:10:37.427Z,13.20
2023-04-12T13:17:37.870Z,13.20
2023-04-12T13:24:38.279Z,13.30
2023-04-12T13:31:38.694Z,13.40
2023-04-12T13:38:39.057Z,13.30
2023-04-12T13:45:39.527Z,13.20
2023-04-12T13:52:40.033Z,13.20
2023-04-12T13:59:40.526Z,13.20
2023-04-12T14:06:41.100Z,13.50
2023-04-12T14:13:42.622Z,13.60
2023-04-12T14:20:49.119Z,13.40
2023-04-12T14:27:49.323Z,13.20
2023-04-12T14:34:49.589Z,13.10
2023-04-12T14:41:50.668Z,12.60
2023-04-12T14:48:51.387Z,12.40
2023-04-12T14:55:51.792Z,12.60
2023-04-12T15:02:52.465Z,13.30
2023-04-12T15:09:53.229Z,13.80
2023-04-12T15:16:54.951Z,13.40
2023-04-12T15:23:54.937Z,12.80
2023-04-12T15:30:56.125Z,12.50
2023-04-12T15:37:56.205Z,12.10
2023-04-12T15:44:57.111Z,11.90
2023-04-12T15:51:57.295Z,11.70
2023-04-12T15:58:58.153Z,11.70
2023-04-12T16:05:59.122Z,11.80
2023-04-12T16:12:59.885Z,11.20
2023-04-12T16:20:00.415Z,10.80
2023-04-12T16:27:00.820Z,10.50
2023-04-12T16:34:01.408Z,10.30
2023-04-12T16:41:01.526Z,10.10
2023-04-12T16:48:02.130Z,10.00
2023-04-12T16:55:02.542Z,10.00
2023-04-12T17:02:02.742Z,10.20
2023-04-12T17:09:03.566Z,10.60
2023-04-12T17:16:04.024Z,10.70
2023-04-12T17:23:04.754Z,10.80
2023-04-12T17:30:06.880Z,10.80
2023-04-12T17:37:07.116Z,10.80
2023-04-12T17:44:07.837Z,10.80
2023-04-12T17:51:09.689Z,10.70
2023-04-12T17:58:10.031Z,10.60
2023-04-12T18:05:10.621Z,10.50
2023-04-12T18:12:11.728Z,10.40
2023-04-12T18:19:13.267Z,10.20
2023-04-12T18:26:13.663Z,10.10
2023-04-12T18:33:14.275Z,10.00
2023-04-12T18:40:15.861Z,9.80
2023-04-12T18:47:16.096Z,9.70
2023-04-12T18:54:17.464Z,9.60
2023-04-12T19:01:18.578Z,9.50
2023-04-12T19:08:19.136Z,9.40
2023-04-12T19:15:19.533Z,9.30
2023-04-12T19:22:19.976Z,9.30
2023-04-12T19:29:21.011Z,9.20
2023-04-12T19:36:24.258Z,9.20
2023-04-12T19:43:25.623Z,9.10
2023-04-12T19:50:26.295Z,9.00
2023-04-12T19:57:27.477Z,8.80
2023-04-12T20:04:27.834Z,8.60
2023-04-12T20:11:28.223Z,8.30
2023-04-12T20:18:29.494Z,8.30
2023-04-12T20:25:29.823Z,8.20
2023-04-12T20:32:30.180Z,8.10
2023-04-12T20:39:30.871Z,8.00
2023-04-12T20:46:31.170Z,7.90
2023-04-12T20:53:31.401Z,7.80
2023-04-12T21:00:32.628Z,7.70
2023-04-12T21:07:33.706Z,7.60
2023-04-12T21:14:34.933Z,7.50
2023-04-12T21:21:36.411Z,7.40
2023-04-12T21:28:38.325Z,7.40
2023-04-12T21:35:40.061Z,7.30
2023-04-12T21:42:41.097Z,7.30
2023-04-12T21:49:41.270Z,7.20
2023-04-12T21:56:41.816Z,7.20
2023-04-12T22:03:43.858Z,7.20
2023-04-12T22:10:44.890Z,7.10
2023-04-12T22:17:45.495Z,7.10
2023-04-12T22:24:46.061Z,7.20
2023-04-12T22:31:46.885Z,7.00
2023-04-12T22:38:50.009Z,6.90
2023-04-12T22:45:53.779Z,6.80
2023-04-12T22:52:54.374Z,6.60
2023-04-12T22:59:54.393Z,6.60
2023-04-12T23:06:57.373Z,6.50
2023-04-12T23:13:58.020Z,6.40
2023-04-12T23:20:58.842Z,6.40
2023-04-12T23:27:59.208Z,6.30
2023-04-12T23:35:02.023Z,6.20
2023-04-12T23:42:03.159Z,6.10
2023-04-12T23:49:03.126Z,6.10
2023-04-12T23:56:03.719Z,6.10
